METAR Data
IDs: Format: Raw Decoded Include TAF

Data at: 1435 UTC 10 Aug 2022

KSFO 101356Z 19003KT 10SM FEW006 BKN014 18/14 A3005 RMK AO2 SLP177 T01780144 $
KSFO 101256Z 31003KT 10SM FEW007 BKN013 18/14 A3004 RMK AO2 SLP172 T01780144 $
KSFO 101156Z 00000KT 10SM FEW007 BKN013 18/14 A3003 RMK AO2 SLP167 T01780144 10183 20178 55000 $
KSFO 101056Z 26005KT 10SM FEW007 BKN013 18/14 A3002 RMK AO2 SLP165 T01780144 $
KSFO 101030Z 27004KT 10SM FEW006 BKN013 18/14 A3002 RMK AO2 T01830144 $
KSFO 101012Z 00000KT 10SM FEW006 BKN015 18/14 A3002 RMK AO2 T01780144 $
KSFO 100956Z 25003KT 10SM FEW006 SCT013 18/14 A3003 RMK AO2 SLP167 T01780144 $
KSFO 100922Z 24005KT 10SM FEW006 BKN014 18/14 A3003 RMK AO2 T01830144 $
KSFO 100856Z 29006KT 10SM FEW006 SCT013 18/14 A3003 RMK AO2 SLP167 T01780144 50001 $
KSFO 100756Z 28007KT 10SM FEW006 BKN013 18/14 A3003 RMK AO2 SLP168 T01830144 402390172 $
KSFO 100656Z 25006KT 10SM FEW008 SCT014 18/14 A3003 RMK AO2 SLP168 T01830144 $
KSFO 100556Z 28009KT 10SM FEW008 FEW014 18/14 A3002 RMK AO2 SLP166 T01830144 10228 20183 53012 $
KSFO 100456Z 28008KT 10SM FEW008 SCT015 19/14 A3002 RMK AO2 SLP165 T01890144 $
KSFO 100411Z 27012KT 10SM FEW008 BKN015 19/14 A3000 RMK AO2 T01890144
KSFO 100356Z 28010KT 10SM FEW009 FEW014 19/14 A2999 RMK AO2 SLP156 T01890144
KSFO 100256Z 28012KT 10SM FEW010 SCT015 19/14 A2999 RMK AO2 SLP155 T01940144 53004
KSFO 100156Z 27016KT 10SM FEW011 FEW016 21/14 A2998 RMK AO2 SLP150 T02060139
KSFO 100056Z 27015KT 10SM FEW011 FEW200 22/14 A2998 RMK AO2 PK WND 28029/0009 SLP152 T02170139
KSFO 092356Z 28023G29KT 10SM FEW011 FEW200 23/13 A2998 RMK AO2 PK WND 28031/2320 SLP151 T02280128 10239 20211 55006
KSFO 092256Z 29021KT 10SM FEW010 FEW200 23/13 A2997 RMK AO2 PK WND 29027/2256 SLP150 T02330128
KSFO 092156Z 29015KT 10SM FEW010 FEW200 23/13 A2998 RMK AO2 SLP153 T02330128
KSFO 092056Z 28015G22KT 10SM FEW011 23/12 A3000 RMK AO2 SLP157 T02330122 58005
KSFO 091956Z 29014G20KT 10SM FEW011 23/13 A3001 RMK AO2 SLP162 T02280133
KSFO 091856Z 28013KT 10SM FEW011 SCT019 23/13 A3001 RMK AO2 SLP163 T02280133
KSFO 091756Z 27012KT 10SM FEW011 SCT019 21/13 A3001 RMK AO2 SLP163 T02110133 10217 20172 51004
KSFO 091711Z 27008KT 10SM FEW011 SCT018 21/14 A3000 RMK AO2 T02060139
KSFO 091656Z 27005KT 10SM FEW011 BKN017 21/14 A3001 RMK AO2 SLP160 T02060139
KSFO 091556Z 30009KT 10SM FEW011 BKN016 19/14 A3001 RMK AO2 SLP161 T01890139
KSFO 091456Z 30009KT 10SM FEW011 BKN017 18/13 A3000 RMK AO2 SLP159 T01830133 51011 $
KSFO 091356Z 28006KT 10SM FEW006 BKN016 18/14 A2999 RMK AO2 SLP157 T01780139 $
KSFO 091320Z 27008KT 10SM FEW004 OVC015 18/13 A2999 RMK AO2 T01780133 $
KSFO 091256Z 26008G17KT 10SM FEW004 OVC014 17/14 A2998 RMK AO2 SLP151 T01720139 $
KSFO 091156Z 29012G19KT 10SM FEW004 OVC010 18/14 A2997 RMK AO2 SLP148 T01780139 10178 20172 55003 $
KSFO 091056Z 29013G21KT 10SM SCT004 OVC012 18/14 A2996 RMK AO2 SLP147 T01780139 $
KSFO 090956Z 29012KT 10SM SCT005 OVC011 18/14 A2997 RMK AO2 SLP148 T01780139 $
KSFO 090856Z 28011G19KT 10SM SCT004 BKN012 OVC015 18/14 A2998 RMK AO2 SLP150 T01780139 58001 $
KSFO 090756Z 28012KT 10SM FEW004 BKN011 OVC015 18/14 A2998 RMK AO2 SLP153 T01780144 402330167 $
KSFO 090656Z 29012KT 10SM FEW004 BKN010 18/14 A2998 RMK AO2 SLP152 T01780144
KSFO 090556Z 28017G21KT 10SM FEW006 BKN010 18/14 A2998 RMK AO2 SLP151 T01780144 10222 20178 50006
KSFO 090535Z 29011KT 10SM FEW008 BKN011 18/14 A2998 RMK AO2 T01780144
KSFO 090456Z 29012KT 10SM FEW008 SCT011 18/14 A2998 RMK AO2 SLP153 T01780144
KSFO 090356Z 28013G22KT 10SM FEW008 FEW024 18/14 A2997 RMK AO2 SLP148 T01830144
KSFO 090256Z 27013KT 10SM FEW008 FEW026 19/14 A2996 RMK AO2 SLP145 T01890139 55002